Ludden, North Dakota
Current Conditions -  °F | °C
As of 3:15 AM on Wednesday 22 Oct 2014 (Local Time) from KGWR Reporting Station
Clear Clear  
Wind Chill: 54°   Ceiling: Unl
Heat Index: 54°   Visibility: 10mi
Dew Point: 43°   Wind: 13mph
Humidity: 67%   Direction: 140°SE
Pressure: 29.86"   Gusts: NA
Location:  46.1099°N, 98.1335°W
Report Text: KGWR 220815Z AUTO 14011KT 10SM CLR 12/06 A2986 RMK A01 P000
Loading
Personal Weather Stations






























Interactive Weather Map
Tropical Storm Tracking
New forecast layout! Learn more

10-Day Weather Forecast

Advertisements
Track Severe Weather on mobile